createdAt,value
2019-01-30T00:00:38.131Z,-4.00
2019-01-30T00:03:06.896Z,-4.20
2019-01-30T00:05:35.341Z,-3.90
2019-01-30T00:08:04.164Z,-4.00
2019-01-30T00:10:32.651Z,-4.00
2019-01-30T00:13:01.105Z,-3.90
2019-01-30T00:15:29.662Z,-4.40
2019-01-30T00:17:58.129Z,-4.10
2019-01-30T00:20:26.683Z,-3.80
2019-01-30T00:22:55.138Z,-3.90
2019-01-30T00:25:24.120Z,-3.90
2019-01-30T00:27:52.635Z,-3.70
2019-01-30T00:30:25.949Z,-4.00
2019-01-30T00:32:54.434Z,-3.90
2019-01-30T00:35:22.966Z,-4.00
2019-01-30T00:37:51.508Z,-4.00
2019-01-30T00:40:21.887Z,-4.00
2019-01-30T00:42:50.645Z,-4.00
2019-01-30T00:45:21.206Z,-3.80
2019-01-30T00:47:49.833Z,-4.00
2019-01-30T00:50:20.226Z,-4.00
2019-01-30T00:52:48.784Z,-4.00
2019-01-30T00:57:45.562Z,-3.90
2019-01-30T01:00:19.888Z,-4.00
2019-01-30T01:02:48.645Z,-4.00
2019-01-30T01:05:17.326Z,-3.90
2019-01-30T01:07:46.149Z,-4.10
2019-01-30T01:10:17.496Z,-4.20
2019-01-30T01:12:46.170Z,-3.90
2019-01-30T01:15:16.067Z,-4.00
2019-01-30T01:17:45.287Z,-4.00
2019-01-30T01:20:20.604Z,-4.10
2019-01-30T01:22:49.477Z,-4.50
2019-01-30T01:25:18.464Z,-4.10
2019-01-30T01:27:47.465Z,-4.30
2019-01-30T01:30:25.733Z,-4.10
2019-01-30T01:32:54.548Z,-4.20
2019-01-30T01:35:23.198Z,-4.10
2019-01-30T01:37:51.722Z,-4.10
2019-01-30T01:40:20.348Z,-4.30
2019-01-30T01:42:48.810Z,-4.00
2019-01-30T01:47:52.253Z,-4.20
2019-01-30T01:50:22.292Z,-4.10
2019-01-30T01:52:50.779Z,-4.20
2019-01-30T01:55:19.473Z,-4.20
2019-01-30T01:57:48.040Z,-4.10
2019-01-30T02:00:19.108Z,-4.50
2019-01-30T02:02:47.708Z,-4.30
2019-01-30T02:05:18.232Z,-4.30
2019-01-30T02:07:46.748Z,-4.30
2019-01-30T02:10:17.284Z,-4.30
2019-01-30T02:12:45.875Z,-4.30
2019-01-30T02:17:44.121Z,-4.30
2019-01-30T02:20:15.517Z,-4.30
2019-01-30T02:22:44.003Z,-4.60
2019-01-30T02:25:12.897Z,-4.40
2019-01-30T02:27:41.627Z,-4.40
2019-01-30T02:30:24.670Z,-4.40
2019-01-30T02:32:53.362Z,-4.40
2019-01-30T02:35:22.449Z,-4.40
2019-01-30T02:37:51.277Z,-4.40
2019-01-30T02:40:22.207Z,-4.60
2019-01-30T02:42:50.771Z,-4.50
2019-01-30T02:45:21.424Z,-4.80
2019-01-30T02:47:49.942Z,-4.50
2019-01-30T02:50:19.678Z,-4.50
2019-01-30T02:52:48.494Z,-4.50
2019-01-30T02:55:18.417Z,-4.50
2019-01-30T02:57:47.085Z,-4.20
2019-01-30T03:00:21.173Z,-4.50
2019-01-30T03:02:49.700Z,-4.50
2019-01-30T03:05:18.329Z,-4.50
2019-01-30T03:07:46.788Z,-4.50
2019-01-30T03:10:17.299Z,-4.50
2019-01-30T03:12:45.960Z,-4.60
2019-01-30T03:15:16.825Z,-4.60
2019-01-30T03:17:45.461Z,-4.50
2019-01-30T03:20:16.715Z,-4.60
2019-01-30T03:22:45.279Z,-4.70
2019-01-30T03:25:15.589Z,-4.70
2019-01-30T03:27:44.249Z,-4.70
2019-01-30T03:30:15.761Z,-4.70
2019-01-30T03:32:44.284Z,-5.00
2019-01-30T03:37:41.021Z,-4.80
2019-01-30T03:40:12.815Z,-4.80
2019-01-30T03:42:41.306Z,-4.40
2019-01-30T03:45:12.396Z,-4.90
2019-01-30T03:47:40.945Z,-4.90
2019-01-30T03:50:13.733Z,-4.90
2019-01-30T03:52:42.330Z,-5.00
2019-01-30T03:55:13.879Z,-4.90
2019-01-30T03:57:42.401Z,-4.90
2019-01-30T04:00:16.620Z,-4.90
2019-01-30T04:02:45.319Z,-5.10
2019-01-30T04:05:13.998Z,-4.90
2019-01-30T04:07:42.572Z,-5.10
2019-01-30T04:10:17.038Z,-4.90
2019-01-30T04:12:45.597Z,-4.90
2019-01-30T04:15:14.308Z,-4.90
2019-01-30T04:17:42.850Z,-4.90
2019-01-30T04:20:19.402Z,-4.90
2019-01-30T04:22:48.342Z,-4.90
2019-01-30T04:25:17.031Z,-5.00
2019-01-30T04:27:45.657Z,-5.00
2019-01-30T04:30:19.719Z,-5.00
2019-01-30T04:32:48.168Z,-5.00
2019-01-30T04:35:16.792Z,-5.00
2019-01-30T04:37:45.425Z,-5.10
2019-01-30T04:40:16.263Z,-5.10
2019-01-30T04:42:44.827Z,-5.20
2019-01-30T04:45:16.217Z,-5.10
2019-01-30T04:47:44.790Z,-5.10
2019-01-30T04:50:13.382Z,-5.20
2019-01-30T04:52:41.836Z,-5.00
2019-01-30T04:55:10.758Z,-5.20
2019-01-30T04:57:39.211Z,-5.10
2019-01-30T05:02:37.371Z,-5.20
2019-01-30T05:05:08.654Z,-5.10
2019-01-30T05:07:37.147Z,-5.10
2019-01-30T05:10:08.427Z,-5.10
2019-01-30T05:12:36.896Z,-5.10
2019-01-30T05:15:11.377Z,-5.30
2019-01-30T05:17:39.928Z,-5.10
2019-01-30T05:20:11.461Z,-5.10
2019-01-30T05:22:40.116Z,-5.10
2019-01-30T05:25:09.825Z,-5.50
2019-01-30T05:27:38.376Z,-5.10
2019-01-30T05:30:15.395Z,-5.00
2019-01-30T05:32:43.936Z,-5.10
2019-01-30T05:35:12.764Z,-5.00
2019-01-30T05:37:41.294Z,-5.20
2019-01-30T05:42:42.328Z,-5.10
2019-01-30T05:45:13.657Z,-5.40
2019-01-30T05:47:42.140Z,-5.30
2019-01-30T05:50:11.239Z,-5.20
2019-01-30T05:52:39.716Z,-4.70
2019-01-30T05:55:10.798Z,-5.10
2019-01-30T05:57:39.288Z,-5.30
2019-01-30T06:00:13.562Z,-5.20
2019-01-30T06:05:10.334Z,-5.40
2019-01-30T06:07:38.872Z,-5.20
2019-01-30T06:10:09.165Z,-5.40
2019-01-30T06:12:37.873Z,-5.30
2019-01-30T06:15:09.358Z,-5.30
2019-01-30T06:17:37.836Z,-5.30
2019-01-30T06:20:09.372Z,-5.40
2019-01-30T06:25:08.326Z,-5.30
2019-01-30T06:27:36.811Z,-5.40
2019-01-30T06:35:03.119Z,-5.10
2019-01-30T06:37:31.579Z,-5.00
2019-01-30T06:40:00.098Z,-5.30
2019-01-30T06:42:28.684Z,-5.20
2019-01-30T06:44:57.177Z,-5.20
2019-01-30T06:47:25.638Z,-4.80
2019-01-30T06:49:54.193Z,-5.30
2019-01-30T06:52:22.669Z,-5.30
2019-01-30T06:54:51.153Z,-5.30
2019-01-30T06:57:19.677Z,-4.50
2019-01-30T06:59:48.167Z,-5.30
2019-01-30T07:02:16.615Z,-5.10
2019-01-30T07:04:45.081Z,-5.20
2019-01-30T07:07:13.575Z,-5.10
2019-01-30T07:09:42.038Z,-5.50
2019-01-30T07:12:10.523Z,-5.30
2019-01-30T07:14:38.974Z,-5.10
2019-01-30T07:17:07.455Z,-5.00
2019-01-30T07:19:35.955Z,-5.10
2019-01-30T07:22:04.469Z,-4.90
2019-01-30T07:24:32.951Z,-4.40
2019-01-30T07:27:01.489Z,-2.50
2019-01-30T07:29:30.009Z,-4.80
2019-01-30T07:31:58.549Z,-4.90
2019-01-30T07:34:27.024Z,-2.70
2019-01-30T07:36:55.506Z,-4.60
2019-01-30T07:39:23.953Z,-4.60
2019-01-30T07:41:52.431Z,-5.00
2019-01-30T07:44:20.900Z,-4.60
2019-01-30T07:46:49.388Z,-4.40
2019-01-30T07:49:17.841Z,-4.30
2019-01-30T07:51:46.384Z,-4.20
2019-01-30T07:54:14.872Z,-4.10
2019-01-30T07:56:43.326Z,-4.10
2019-01-30T07:59:11.856Z,-3.90
2019-01-30T08:01:40.408Z,-4.10
2019-01-30T08:04:08.934Z,-3.80
2019-01-30T08:06:37.472Z,-4.20
2019-01-30T08:09:08.130Z,-3.80
2019-01-30T08:11:36.620Z,-3.70
2019-01-30T08:14:05.329Z,-3.90
2019-01-30T08:16:33.884Z,-3.40
2019-01-30T08:19:02.478Z,-3.50
2019-01-30T08:21:30.948Z,-3.40
2019-01-30T08:23:59.521Z,-3.30
2019-01-30T08:26:28.601Z,-3.30
2019-01-30T08:28:57.316Z,-3.10
2019-01-30T08:31:26.208Z,-3.20
2019-01-30T08:33:54.744Z,-3.10
2019-01-30T08:36:23.232Z,-3.00
2019-01-30T08:38:51.677Z,-2.90
2019-01-30T08:41:20.168Z,-2.70
2019-01-30T08:43:48.621Z,-2.70
2019-01-30T08:48:45.214Z,-2.00
2019-01-30T08:51:13.730Z,-1.80
2019-01-30T08:53:42.222Z,-2.40
2019-01-30T08:56:10.749Z,-2.40
2019-01-30T08:58:39.266Z,-2.30
2019-01-30T09:01:07.908Z,-2.10
2019-01-30T09:06:04.686Z,-1.90
2019-01-30T09:11:01.369Z,-2.00
2019-01-30T09:13:29.925Z,-1.70
2019-01-30T09:15:58.384Z,-1.80
2019-01-30T09:20:55.236Z,-1.40
2019-01-30T09:23:23.735Z,-1.50
2019-01-30T09:25:52.191Z,-1.40
2019-01-30T09:28:20.685Z,-1.90
2019-01-30T09:30:49.168Z,-1.40
2019-01-30T09:33:25.642Z,-1.40
2019-01-30T09:38:16.406Z,-1.30
2019-01-30T09:40:44.920Z,-1.00
2019-01-30T09:43:13.401Z,-1.00
2019-01-30T09:45:41.928Z,-1.00
2019-01-30T09:48:10.493Z,-0.90
2019-01-30T09:50:38.943Z,-1.10
2019-01-30T09:53:07.573Z,-1.00
2019-01-30T09:55:36.027Z,-1.10
2019-01-30T10:03:02.254Z,-0.80
2019-01-30T10:05:30.933Z,-0.80
2019-01-30T10:07:59.489Z,-0.70
2019-01-30T10:12:57.121Z,-0.70
2019-01-30T10:15:33.842Z,-0.50
2019-01-30T10:18:02.412Z,-0.40
2019-01-30T10:20:32.467Z,-0.40
2019-01-30T10:25:29.211Z,-0.10
2019-01-30T10:30:28.437Z,-0.20
2019-01-30T10:32:57.126Z,-0.20
2019-01-30T10:35:25.852Z,-0.30
2019-01-30T10:37:54.299Z,-0.40
2019-01-30T10:40:23.027Z,-0.30
2019-01-30T10:42:52.148Z,-0.10
2019-01-30T10:45:20.834Z,0.30
2019-01-30T10:47:49.383Z,-0.10
2019-01-30T10:50:23.507Z,0.00
2019-01-30T10:52:52.031Z,0.10
2019-01-30T10:55:23.304Z,0.10
2019-01-30T10:57:53.919Z,0.20
2019-01-30T11:00:25.281Z,0.20
2019-01-30T11:02:53.839Z,0.10
2019-01-30T11:05:22.561Z,0.20
2019-01-30T11:07:51.005Z,0.20
2019-01-30T11:10:20.725Z,0.20
2019-01-30T11:12:49.170Z,0.00
2019-01-30T11:15:30.449Z,0.00
2019-01-30T11:17:59.624Z,0.20
2019-01-30T11:20:29.359Z,0.30
2019-01-30T11:22:57.946Z,0.20
2019-01-30T11:25:32.473Z,0.30
2019-01-30T11:28:01.063Z,0.50
2019-01-30T11:30:29.766Z,0.70
2019-01-30T11:32:58.346Z,0.80
2019-01-30T11:35:26.972Z,1.00
2019-01-30T11:37:55.467Z,0.80
2019-01-30T11:40:24.355Z,0.70
2019-01-30T11:42:52.798Z,1.20
2019-01-30T11:45:27.114Z,0.50
2019-01-30T11:47:55.660Z,0.80
2019-01-30T11:50:24.246Z,0.60
2019-01-30T11:52:52.708Z,0.80
2019-01-30T11:55:21.279Z,0.80
2019-01-30T11:57:49.734Z,1.20
2019-01-30T12:00:25.681Z,1.20
2019-01-30T12:02:54.190Z,1.20
2019-01-30T12:05:22.810Z,1.30
2019-01-30T12:07:51.258Z,1.30
2019-01-30T12:10:19.814Z,1.30
2019-01-30T12:12:48.416Z,1.50
2019-01-30T12:15:19.960Z,0.80
2019-01-30T12:17:48.452Z,1.20
2019-01-30T12:20:17.022Z,1.20
2019-01-30T12:22:45.699Z,1.30
2019-01-30T12:25:18.736Z,1.30
2019-01-30T12:27:47.227Z,1.30
2019-01-30T12:30:18.356Z,1.10
2019-01-30T12:32:46.970Z,1.10
2019-01-30T12:35:15.411Z,1.00
2019-01-30T12:37:44.310Z,1.00
2019-01-30T12:40:18.266Z,1.00
2019-01-30T12:42:47.118Z,1.00
2019-01-30T12:45:18.607Z,1.00
2019-01-30T12:47:47.208Z,1.00
2019-01-30T12:50:15.890Z,1.00
2019-01-30T12:52:44.488Z,0.90
2019-01-30T12:55:13.244Z,0.80
2019-01-30T12:57:42.126Z,0.70
2019-01-30T13:00:13.670Z,0.60
2019-01-30T13:02:42.108Z,0.90
2019-01-30T13:05:10.836Z,1.10
2019-01-30T13:07:39.348Z,1.20
2019-01-30T13:10:09.150Z,1.40
2019-01-30T13:12:37.845Z,1.40
2019-01-30T13:15:11.884Z,1.40
2019-01-30T13:17:40.474Z,1.40
2019-01-30T13:20:12.016Z,1.50
2019-01-30T13:22:40.526Z,1.50
2019-01-30T13:25:11.160Z,1.60
2019-01-30T13:27:39.740Z,1.60
2019-01-30T13:32:50.162Z,1.50
2019-01-30T13:35:18.626Z,1.80
2019-01-30T13:37:47.240Z,1.90
2019-01-30T13:40:21.416Z,1.50
2019-01-30T13:42:50.005Z,1.40
2019-01-30T13:45:18.586Z,1.20
2019-01-30T13:47:47.243Z,1.10
2019-01-30T13:50:18.922Z,1.10
2019-01-30T13:52:47.474Z,1.10
2019-01-30T13:55:16.221Z,1.10
2019-01-30T13:57:44.685Z,1.10
2019-01-30T14:00:23.139Z,1.10
2019-01-30T14:02:51.667Z,1.10
2019-01-30T14:05:20.303Z,1.20
2019-01-30T14:07:49.074Z,1.30
2019-01-30T14:10:17.703Z,1.40
2019-01-30T14:12:46.149Z,1.50
2019-01-30T14:15:23.666Z,1.20
2019-01-30T14:17:53.796Z,1.30
2019-01-30T14:20:22.496Z,1.30
2019-01-30T14:22:51.127Z,1.40
2019-01-30T14:25:19.803Z,1.40
2019-01-30T14:27:48.333Z,1.80
2019-01-30T14:30:25.081Z,1.70
2019-01-30T14:32:53.698Z,1.60
2019-01-30T14:37:50.715Z,1.70
2019-01-30T14:40:21.167Z,1.70
2019-01-30T14:42:49.939Z,1.70
2019-01-30T14:45:21.301Z,1.70
2019-01-30T14:47:51.093Z,1.70
2019-01-30T14:50:24.844Z,1.70
2019-01-30T14:55:21.797Z,1.50
2019-01-30T14:57:51.277Z,1.30
2019-01-30T15:00:25.081Z,1.50
2019-01-30T15:02:53.851Z,1.60
2019-01-30T15:05:22.921Z,1.50
2019-01-30T15:07:51.935Z,1.20
2019-01-30T15:10:26.274Z,1.40
2019-01-30T15:15:28.506Z,1.40
2019-01-30T15:17:57.139Z,1.30
2019-01-30T15:20:28.187Z,1.40
2019-01-30T15:22:57.143Z,1.50
2019-01-30T15:25:25.870Z,1.30
2019-01-30T15:27:54.390Z,1.50
2019-01-30T15:30:31.368Z,1.60
2019-01-30T15:32:59.969Z,1.60
2019-01-30T15:35:33.577Z,1.60
2019-01-30T15:37:58.912Z,1.50
2019-01-30T15:40:30.245Z,1.50
2019-01-30T15:42:58.910Z,1.30
2019-01-30T15:45:27.542Z,1.50
2019-01-30T15:47:56.024Z,1.50
2019-01-30T15:50:30.073Z,1.70
2019-01-30T15:52:59.327Z,1.50
2019-01-30T15:55:28.039Z,1.20
2019-01-30T15:57:59.530Z,1.80
2019-01-30T16:00:47.969Z,1.50
2019-01-30T16:03:16.554Z,1.40
2019-01-30T16:05:45.491Z,1.20
2019-01-30T16:08:14.142Z,1.10
2019-01-30T16:10:42.680Z,1.30
2019-01-30T16:13:11.307Z,1.70
2019-01-30T16:15:49.378Z,2.00
2019-01-30T16:18:17.980Z,1.50
2019-01-30T16:20:46.675Z,2.00
2019-01-30T16:23:15.367Z,1.40
2019-01-30T16:25:43.938Z,1.50
2019-01-30T16:28:12.455Z,1.40
2019-01-30T16:30:43.778Z,1.10
2019-01-30T16:33:12.365Z,1.20
2019-01-30T16:35:42.074Z,0.80
2019-01-30T16:38:11.059Z,1.10
2019-01-30T16:40:39.711Z,0.90
2019-01-30T16:43:08.410Z,0.50
2019-01-30T16:45:37.725Z,0.90
2019-01-30T16:48:07.846Z,0.70
2019-01-30T16:50:36.471Z,0.70
2019-01-30T16:53:06.592Z,0.80
2019-01-30T16:55:37.794Z,0.50
2019-01-30T16:58:06.443Z,0.50
2019-01-30T17:00:37.672Z,0.50
2019-01-30T17:03:08.383Z,0.50
2019-01-30T17:05:38.773Z,0.40
2019-01-30T17:08:07.583Z,0.50
2019-01-30T17:10:36.172Z,0.50
2019-01-30T17:13:07.217Z,0.40
2019-01-30T17:15:38.687Z,0.40
2019-01-30T17:18:08.791Z,0.50
2019-01-30T17:20:39.669Z,0.60
2019-01-30T17:23:08.391Z,0.10
2019-01-30T17:25:37.204Z,0.40
2019-01-30T17:28:06.947Z,0.20
2019-01-30T17:30:48.831Z,0.30
2019-01-30T17:38:15.931Z,0.00
2019-01-30T17:40:44.930Z,0.10
2019-01-30T17:43:13.651Z,0.00
2019-01-30T17:45:44.316Z,-0.20
2019-01-30T17:48:13.171Z,0.10
2019-01-30T17:53:12.525Z,0.20
2019-01-30T17:55:41.184Z,-0.20
2019-01-30T17:58:10.019Z,-0.70
2019-01-30T18:00:47.493Z,0.10
2019-01-30T18:03:16.266Z,0.00
2019-01-30T18:05:45.480Z,-0.20
2019-01-30T18:08:17.037Z,-0.10
2019-01-30T18:10:45.586Z,0.10
2019-01-30T18:13:15.207Z,0.10
2019-01-30T18:15:43.743Z,0.20
2019-01-30T18:18:12.387Z,0.20
2019-01-30T18:23:10.754Z,0.20
2019-01-30T18:25:41.075Z,0.30
2019-01-30T18:28:11.240Z,0.20
2019-01-30T18:30:39.875Z,0.30
2019-01-30T18:33:08.453Z,0.30
2019-01-30T18:35:38.573Z,0.10
2019-01-30T18:38:07.389Z,0.70
2019-01-30T18:40:36.074Z,0.20
2019-01-30T18:43:05.898Z,0.30
2019-01-30T18:45:36.020Z,0.30
2019-01-30T18:48:05.263Z,0.20
2019-01-30T18:50:34.646Z,0.30
2019-01-30T18:53:03.640Z,0.30
2019-01-30T18:55:32.247Z,0.20
2019-01-30T18:58:04.722Z,0.70
2019-01-30T19:00:40.643Z,0.50
2019-01-30T19:03:10.864Z,0.70
2019-01-30T19:05:42.986Z,0.20
2019-01-30T19:10:41.464Z,0.20
2019-01-30T19:13:10.754Z,0.20
2019-01-30T19:15:40.481Z,0.20
2019-01-30T19:18:10.774Z,0.20
2019-01-30T19:23:14.512Z,0.20
2019-01-30T19:25:43.231Z,-0.20
2019-01-30T19:28:12.199Z,0.10
2019-01-30T19:30:41.018Z,0.00
2019-01-30T19:33:10.568Z,0.00
2019-01-30T19:35:41.582Z,0.00
2019-01-30T19:38:11.883Z,-0.10
2019-01-30T19:40:41.397Z,0.10
2019-01-30T19:43:10.034Z,-0.20
2019-01-30T19:48:08.574Z,0.40
2019-01-30T19:50:38.560Z,0.20
2019-01-30T19:53:08.645Z,0.30
2019-01-30T19:55:38.935Z,0.20
2019-01-30T19:58:12.219Z,0.20
2019-01-30T20:00:43.442Z,0.60
2019-01-30T20:03:14.864Z,0.20
2019-01-30T20:05:43.961Z,0.20
2019-01-30T20:10:43.372Z,-0.10
2019-01-30T20:13:13.040Z,-0.10
2019-01-30T20:15:43.179Z,-0.20
2019-01-30T20:18:13.321Z,-0.10
2019-01-30T20:23:13.428Z,0.40
2019-01-30T20:25:45.263Z,-0.40
2019-01-30T20:28:17.596Z,-0.70
2019-01-30T20:30:46.232Z,-0.60
2019-01-30T20:35:46.040Z,-0.40
2019-01-30T20:38:18.714Z,-1.00
2019-01-30T20:48:25.650Z,-1.20
2019-01-30T20:53:26.331Z,-1.20
2019-01-30T20:55:54.905Z,-0.80
2019-01-30T21:00:51.961Z,-0.60
2019-01-30T21:03:23.710Z,-0.60
2019-01-30T21:05:56.019Z,-0.70
2019-01-30T21:08:24.594Z,-0.80
2019-01-30T21:10:54.261Z,-0.70
2019-01-30T21:13:23.321Z,-0.80
2019-01-30T21:15:53.343Z,-0.80
2019-01-30T21:20:54.490Z,-0.90
2019-01-30T21:23:23.965Z,-0.90
2019-01-30T21:25:54.104Z,-0.90
2019-01-30T21:28:24.709Z,-1.00
2019-01-30T21:30:55.729Z,-0.80
2019-01-30T21:33:24.884Z,-0.80
2019-01-30T21:38:22.635Z,-0.60
2019-01-30T21:40:51.221Z,-0.80
2019-01-30T21:43:22.124Z,-0.70
2019-01-30T21:48:20.490Z,-1.10
2019-01-30T21:50:51.306Z,-0.60
2019-01-30T21:53:20.942Z,-0.80
2019-01-30T21:55:51.944Z,-0.70
2019-01-30T21:58:20.993Z,-0.70
2019-01-30T22:00:49.615Z,-0.70
2019-01-30T22:03:18.210Z,-1.10
2019-01-30T22:05:46.844Z,-0.80
2019-01-30T22:08:15.504Z,-1.00
2019-01-30T22:10:44.076Z,-0.80
2019-01-30T22:13:12.650Z,-0.80
2019-01-30T22:15:41.228Z,-1.00
2019-01-30T22:18:09.970Z,-1.00
2019-01-30T22:20:38.505Z,-1.10
2019-01-30T22:23:07.172Z,-1.30
2019-01-30T22:25:35.849Z,-1.30
2019-01-30T22:28:05.428Z,-1.20
2019-01-30T22:30:34.657Z,-1.40
2019-01-30T22:33:03.364Z,-1.40
2019-01-30T22:35:32.066Z,-1.20
2019-01-30T22:42:58.637Z,-1.30
2019-01-30T22:45:27.297Z,-1.20
2019-01-30T22:47:55.844Z,-0.80
2019-01-30T22:50:24.434Z,-0.90
2019-01-30T22:52:52.923Z,-1.20
2019-01-30T22:55:23.194Z,-1.10
2019-01-30T22:57:51.857Z,-1.20
2019-01-30T23:00:54.396Z,-1.00
2019-01-30T23:03:37.932Z,-1.30
2019-01-30T23:06:24.150Z,-1.10
2019-01-30T23:09:16.656Z,-1.30
2019-01-30T23:12:16.339Z,-1.20
2019-01-30T23:14:50.652Z,-1.20
2019-01-30T23:20:12.459Z,-1.30
2019-01-30T23:23:06.318Z,-1.70
2019-01-30T23:25:40.393Z,-1.40
2019-01-30T23:28:17.881Z,-1.80
2019-01-30T23:31:12.020Z,-2.10
2019-01-30T23:33:43.576Z,-1.40
2019-01-30T23:36:34.640Z,-1.80
2019-01-30T23:39:11.999Z,-1.80
2019-01-30T23:41:49.500Z,-2.10
2019-01-30T23:47:07.264Z,-2.00
2019-01-30T23:49:56.844Z,-2.20
2019-01-30T23:52:31.072Z,-2.30
2019-01-30T23:55:23.703Z,-2.30
2019-01-30T23:58:00.822Z,-2.50
